aviador You're here:

SCCF Decoded Metar

CALAMA in CHILE
Report Time2018-06-25 11:00:00
UTC Time2018-06-25 11:45:43
Flight Rules vfr VFR
Wind110° at 19 kt
W.Decomp.*RWY 10: 18.4 kt HW 4.6 kt RCW
W.Rank110° ranks 5
Current wind is above 110° avg. (13.6)
Visibility9999 m
Phenomena:N/A
Clouds:N/A
Expected CloudBase > 6,000 ft AGL from Temp-Dew spread
CeilingNone
Temp00°C (ISA 0)
Dew Point-15°C (32% RH)
AAT-10.2°C
QNH1027 hPa
Density Alt7,156 ft
Elevation7,585 ft
Report Wrong Elevation
Raw Report
SCCF 251100Z 11019KT CAVOK M00/M15 Q1027=

Extra information for SCCF:More info

Metar Taf Metar & Taf Last 4 Metars F.Rules Stats Wind Profile Meteogram Temp Stats Airport Information Weather charts Add Link Nearby VenuesMetar ALERT Operation Metar Decoded Social comments